createdAt,value
2018-03-19T00:00:18.550Z,97423.48
2018-03-19T00:00:50.182Z,97416.59
2018-03-19T00:01:21.814Z,97426.34
2018-03-19T00:01:53.442Z,97423.18
2018-03-19T00:02:25.070Z,97424.00
2018-03-19T00:02:56.702Z,97425.30
2018-03-19T00:03:28.329Z,97420.97
2018-03-19T00:03:59.999Z,97422.74
2018-03-19T00:04:31.634Z,97421.39
2018-03-19T00:05:03.258Z,97421.38
2018-03-19T00:05:34.882Z,97417.03
2018-03-19T00:06:06.506Z,97416.56
2018-03-19T00:06:38.133Z,97413.12
2018-03-19T00:07:09.758Z,97417.64
2018-03-19T00:07:41.386Z,97416.05
2018-03-19T00:08:13.018Z,97413.95
2018-03-19T00:08:44.696Z,97418.67
2018-03-19T00:09:16.320Z,97418.30
2018-03-19T00:09:47.951Z,97419.95
2018-03-19T00:10:19.579Z,97415.70
2018-03-19T00:10:51.210Z,97419.88
2018-03-19T00:11:22.829Z,97419.00
2018-03-19T00:11:54.694Z,97410.13
2018-03-19T00:12:26.322Z,97416.53
2018-03-19T00:12:57.953Z,97413.63
2018-03-19T00:13:29.586Z,97416.11
2018-03-19T00:14:01.255Z,97419.34
2018-03-19T00:14:32.882Z,97412.27
2018-03-19T00:15:04.523Z,97417.46
2018-03-19T00:15:36.151Z,97414.09
2018-03-19T00:16:07.773Z,97415.94
2018-03-19T00:16:39.451Z,97411.58
2018-03-19T00:17:11.078Z,97407.77
2018-03-19T00:17:42.703Z,97410.34
2018-03-19T00:18:14.338Z,97412.89
2018-03-19T00:18:45.968Z,97411.16
2018-03-19T00:19:17.594Z,97409.57
2018-03-19T00:19:49.222Z,97408.70
2018-03-19T00:20:20.902Z,97407.44
2018-03-19T00:20:52.534Z,97406.52
2018-03-19T00:21:24.167Z,97407.95
2018-03-19T00:21:55.798Z,97413.90
2018-03-19T00:22:27.471Z,97410.42
2018-03-19T00:22:59.097Z,97406.78
2018-03-19T00:23:30.726Z,97412.78
2018-03-19T00:24:02.362Z,97410.59
2018-03-19T00:24:33.990Z,97411.00
2018-03-19T00:25:05.618Z,97409.71
2018-03-19T00:25:37.250Z,97403.28
2018-03-19T00:26:08.922Z,97399.52
2018-03-19T00:26:40.545Z,97404.19
2018-03-19T00:27:12.173Z,97399.09
2018-03-19T00:27:43.798Z,97399.16
2018-03-19T00:28:15.421Z,97393.30
2018-03-19T00:28:47.051Z,97401.80
2018-03-19T00:29:18.683Z,97400.16
2018-03-19T00:29:50.310Z,97397.84
2018-03-19T00:30:21.934Z,97397.12
2018-03-19T00:30:53.562Z,97395.09
2018-03-19T00:31:25.230Z,97395.81
2018-03-19T00:31:56.858Z,97398.83
2018-03-19T00:32:28.522Z,97399.31
2018-03-19T00:33:00.147Z,97395.58
2018-03-19T00:33:31.774Z,97393.03
2018-03-19T00:34:03.408Z,97395.14
2018-03-19T00:34:35.034Z,97397.69
2018-03-19T00:35:06.668Z,97395.85
2018-03-19T00:35:38.298Z,97393.72
2018-03-19T00:36:09.928Z,97398.39
2018-03-19T00:36:41.553Z,97393.36
2018-03-19T00:37:13.218Z,97388.75
2018-03-19T00:37:44.842Z,97399.27
2018-03-19T00:38:16.466Z,97400.33
2018-03-19T00:38:48.090Z,97399.08
2018-03-19T00:39:19.715Z,97395.16
2018-03-19T00:39:51.342Z,97392.20
2018-03-19T00:40:22.999Z,97395.22
2018-03-19T00:40:54.631Z,97392.54
2018-03-19T00:41:26.258Z,97394.31
2018-03-19T00:41:57.882Z,97393.44
2018-03-19T00:42:29.546Z,97388.92
2018-03-19T00:43:01.190Z,97387.58
2018-03-19T00:43:32.818Z,97388.10
2018-03-19T00:44:04.442Z,97387.59
2018-03-19T00:44:36.066Z,97385.56
2018-03-19T00:45:07.690Z,97389.64
2018-03-19T00:45:39.311Z,97392.60
2018-03-19T00:46:10.935Z,97389.64
2018-03-19T00:46:42.558Z,97384.11
2018-03-19T00:47:14.190Z,97389.72
2018-03-19T00:47:45.818Z,97393.17
2018-03-19T00:48:17.442Z,97389.30
2018-03-19T00:48:49.066Z,97386.83
2018-03-19T00:49:20.726Z,97384.45
2018-03-19T00:49:52.395Z,97383.06
2018-03-19T00:50:24.017Z,97382.25
2018-03-19T00:50:55.646Z,97385.27
2018-03-19T00:51:27.301Z,97386.48
2018-03-19T00:51:58.933Z,97383.60
2018-03-19T00:52:30.558Z,97381.91
2018-03-19T00:53:02.181Z,97382.31
2018-03-19T00:53:33.810Z,97378.03
2018-03-19T00:54:05.481Z,97378.98
2018-03-19T00:54:37.110Z,97376.03
2018-03-19T00:55:08.734Z,97378.94
2018-03-19T00:55:40.358Z,97378.92
2018-03-19T00:56:11.981Z,97373.81
2018-03-19T00:56:43.606Z,97382.73
2018-03-19T00:57:15.247Z,97375.16
2018-03-19T00:57:46.878Z,97370.55
2018-03-19T00:58:18.506Z,97375.23
2018-03-19T00:58:50.138Z,97377.27
2018-03-19T00:59:21.805Z,97367.92
2018-03-19T00:59:53.430Z,97368.72
2018-03-19T01:00:25.054Z,97366.22
2018-03-19T01:00:56.690Z,97371.74
2018-03-19T01:01:28.318Z,97369.11
2018-03-19T01:01:59.942Z,97365.70
2018-03-19T01:02:31.612Z,97368.58
2018-03-19T01:03:03.238Z,97364.36
2018-03-19T01:03:34.862Z,97366.98
2018-03-19T01:04:06.486Z,97360.17
2018-03-19T01:04:38.111Z,97361.91
2018-03-19T01:05:09.773Z,97362.73
2018-03-19T01:05:41.407Z,97360.08
2018-03-19T01:06:13.034Z,97364.33
2018-03-19T01:06:44.663Z,97370.25
2018-03-19T01:07:16.286Z,97366.82
2018-03-19T01:07:47.914Z,97362.22
2018-03-19T01:08:19.540Z,97355.86
2018-03-19T01:08:51.192Z,97364.36
2018-03-19T01:09:22.822Z,97361.02
2018-03-19T01:09:54.499Z,97363.07
2018-03-19T01:10:26.122Z,97357.56
2018-03-19T01:10:57.754Z,97357.47
2018-03-19T01:11:29.423Z,97358.66
2018-03-19T01:12:01.067Z,97354.05
2018-03-19T01:12:32.690Z,97347.56
2018-03-19T01:13:04.310Z,97353.48
2018-03-19T01:13:35.934Z,97356.41
2018-03-19T01:14:07.565Z,97350.45
2018-03-19T01:14:39.186Z,97350.47
2018-03-19T01:15:10.859Z,97352.61
2018-03-19T01:15:42.481Z,97354.97
2018-03-19T01:16:14.109Z,97354.64
2018-03-19T01:16:45.730Z,97353.70
2018-03-19T01:17:17.365Z,97347.00
2018-03-19T01:17:48.991Z,97349.12
2018-03-19T01:18:20.642Z,97350.47
2018-03-19T01:18:52.272Z,97351.67
2018-03-19T01:19:23.898Z,97350.80
2018-03-19T01:19:55.525Z,97349.44
2018-03-19T01:20:27.154Z,97353.47
2018-03-19T01:20:58.777Z,97349.13
2018-03-19T01:21:30.458Z,97344.41
2018-03-19T01:22:02.088Z,97346.91
2018-03-19T01:22:33.714Z,97349.09
2018-03-19T01:23:05.343Z,97350.21
2018-03-19T01:23:36.979Z,97341.70
2018-03-19T01:24:08.610Z,97344.69
2018-03-19T01:24:40.242Z,97341.26
2018-03-19T01:25:11.866Z,97342.44
2018-03-19T01:25:43.494Z,97347.20
2018-03-19T01:26:15.118Z,97343.39
2018-03-19T01:26:46.794Z,97340.82
2018-03-19T01:27:18.419Z,97342.88
2018-03-19T01:27:50.046Z,97343.23
2018-03-19T01:28:21.669Z,97344.52
2018-03-19T01:28:53.298Z,97339.48
2018-03-19T01:29:24.926Z,97336.42
2018-03-19T01:29:56.554Z,97337.78
2018-03-19T01:30:28.178Z,97338.52
2018-03-19T01:30:59.842Z,97333.36
2018-03-19T01:31:31.518Z,97332.59
2018-03-19T01:32:03.142Z,97331.90
2018-03-19T01:32:34.767Z,97333.45
2018-03-19T01:33:06.394Z,97339.50
2018-03-19T01:33:38.021Z,97333.03
2018-03-19T01:34:09.650Z,97335.13
2018-03-19T01:34:41.278Z,97336.86
2018-03-19T01:35:12.907Z,97338.63
2018-03-19T01:35:44.529Z,97328.41
2018-03-19T01:36:16.159Z,97322.03
2018-03-19T01:36:47.786Z,97328.42
2018-03-19T01:37:19.450Z,97331.46
2018-03-19T01:37:51.074Z,97327.66
2018-03-19T01:38:22.698Z,97332.42
2018-03-19T01:38:54.330Z,97330.31
2018-03-19T01:39:25.955Z,97330.28
2018-03-19T01:39:57.587Z,97326.88
2018-03-19T01:40:29.219Z,97325.02
2018-03-19T01:41:00.854Z,97326.58
2018-03-19T01:41:32.482Z,97327.05
2018-03-19T01:42:04.154Z,97329.44
2018-03-19T01:42:35.778Z,97328.75
2018-03-19T01:43:07.407Z,97324.09
2018-03-19T01:43:39.162Z,97331.42
2018-03-19T01:44:10.793Z,97322.91
2018-03-19T01:44:42.413Z,97326.78
2018-03-19T01:45:14.038Z,97327.57
2018-03-19T01:45:45.665Z,97326.25
2018-03-19T01:46:17.293Z,97323.39
2018-03-19T01:46:48.918Z,97324.78
2018-03-19T01:47:20.542Z,97330.69
2018-03-19T01:47:52.166Z,97322.56
2018-03-19T01:48:23.802Z,97329.87
2018-03-19T01:48:55.466Z,97329.45
2018-03-19T01:49:27.099Z,97329.87
2018-03-19T01:49:58.726Z,97327.90
2018-03-19T01:50:30.345Z,97326.63
2018-03-19T01:51:01.975Z,97331.39
2018-03-19T01:51:33.606Z,97325.69
2018-03-19T01:52:05.229Z,97322.64
2018-03-19T01:52:36.853Z,97331.24
2018-03-19T01:53:08.482Z,97327.50
2018-03-19T01:53:40.114Z,97323.36
2018-03-19T01:54:11.738Z,97323.73
2018-03-19T01:54:43.372Z,97324.84
2018-03-19T01:55:15.002Z,97331.59
2018-03-19T01:55:46.666Z,97324.41
2018-03-19T01:56:18.295Z,97321.98
2018-03-19T01:56:49.917Z,97327.58
2018-03-19T01:57:21.546Z,97326.73
2018-03-19T01:57:53.222Z,97328.02
2018-03-19T01:58:24.845Z,97325.91
2018-03-19T01:58:56.474Z,97329.72
2018-03-19T01:59:28.099Z,97328.87
2018-03-19T01:59:59.722Z,97330.23
2018-03-19T02:00:31.345Z,97327.31
2018-03-19T02:01:02.969Z,97330.16
2018-03-19T02:01:34.606Z,97327.16
2018-03-19T02:02:06.238Z,97330.33
2018-03-19T02:02:37.866Z,97330.30
2018-03-19T02:03:09.490Z,97328.55
2018-03-19T02:03:41.114Z,97325.56
2018-03-19T02:04:12.783Z,97330.31
2018-03-19T02:04:44.446Z,97328.52
2018-03-19T02:05:16.070Z,97325.18
2018-03-19T02:05:47.698Z,97327.69
2018-03-19T02:06:19.322Z,97329.80
2018-03-19T02:06:50.949Z,97323.08
2018-03-19T02:07:22.574Z,97326.51
2018-03-19T02:07:54.197Z,97327.83
2018-03-19T02:08:25.828Z,97324.47
2018-03-19T02:08:57.454Z,97322.43
2018-03-19T02:09:29.134Z,97327.08
2018-03-19T02:10:00.759Z,97322.84
2018-03-19T02:10:32.385Z,97321.97
2018-03-19T02:11:04.014Z,97324.52
2018-03-19T02:11:35.642Z,97322.24
2018-03-19T02:12:07.275Z,97321.50
2018-03-19T02:12:38.898Z,97321.48
2018-03-19T02:13:10.526Z,97323.58
2018-03-19T02:13:42.156Z,97320.95
2018-03-19T02:14:13.783Z,97320.13
2018-03-19T02:14:45.450Z,97319.61
2018-03-19T02:15:17.083Z,97320.45
2018-03-19T02:15:48.706Z,97319.14
2018-03-19T02:16:20.334Z,97323.36
2018-03-19T02:16:51.962Z,97317.91
2018-03-19T02:17:23.594Z,97317.52
2018-03-19T02:17:55.254Z,97317.05
2018-03-19T02:18:26.877Z,97319.17
2018-03-19T02:18:58.506Z,97318.81
2018-03-19T02:19:30.146Z,97322.21
2018-03-19T02:20:01.797Z,97320.03
2018-03-19T02:20:33.421Z,97314.91
2018-03-19T02:21:05.088Z,97312.75
2018-03-19T02:21:36.709Z,97315.69
2018-03-19T02:22:08.330Z,97321.20
2018-03-19T02:22:39.958Z,97316.52
2018-03-19T02:23:11.590Z,97317.81
2018-03-19T02:23:43.213Z,97318.23
2018-03-19T02:24:14.835Z,97313.53
2018-03-19T02:24:46.494Z,97317.37
2018-03-19T02:25:18.118Z,97316.41
2018-03-19T02:25:49.742Z,97321.00
2018-03-19T02:26:21.473Z,97318.46
2018-03-19T02:26:53.070Z,97315.55
2018-03-19T02:27:24.702Z,97319.39
2018-03-19T02:27:56.347Z,97314.55
2018-03-19T02:28:27.978Z,97308.80
2018-03-19T02:28:59.602Z,97316.07
2018-03-19T02:29:31.226Z,97320.70
2018-03-19T02:30:02.901Z,97322.82
2018-03-19T02:30:34.527Z,97316.45
2018-03-19T02:31:06.158Z,97313.86
2018-03-19T02:31:37.782Z,97316.83
2018-03-19T02:32:09.412Z,97320.28
2018-03-19T02:32:41.052Z,97323.94
2018-03-19T02:33:12.678Z,97317.55
2018-03-19T02:33:44.310Z,97315.33
2018-03-19T02:34:15.939Z,97311.88
2018-03-19T02:34:47.565Z,97310.28
2018-03-19T02:35:19.230Z,97306.82
2018-03-19T02:35:50.860Z,97302.48
2018-03-19T02:36:22.514Z,97314.30
2018-03-19T02:36:54.142Z,97304.83
2018-03-19T02:37:25.767Z,97310.37
2018-03-19T02:37:57.393Z,97303.41
2018-03-19T02:38:29.018Z,97307.67
2018-03-19T02:39:00.643Z,97307.40
2018-03-19T02:39:32.275Z,97302.23
2018-03-19T02:40:03.943Z,97308.95
2018-03-19T02:40:35.571Z,97310.05
2018-03-19T02:41:07.206Z,97306.98
2018-03-19T02:41:38.845Z,97310.80
2018-03-19T02:42:10.478Z,97315.31
2018-03-19T02:42:42.178Z,97310.29
2018-03-19T02:43:13.802Z,97311.65
2018-03-19T02:43:45.471Z,97310.36
2018-03-19T02:44:17.093Z,97308.99
2018-03-19T02:44:48.825Z,97314.38
2018-03-19T02:45:20.515Z,97315.33
2018-03-19T02:45:52.147Z,97310.11
2018-03-19T02:46:23.773Z,97314.02
2018-03-19T02:46:55.471Z,97310.61
2018-03-19T02:47:27.058Z,97310.63
2018-03-19T02:47:58.682Z,97312.07
2018-03-19T02:48:30.310Z,97312.86
2018-03-19T02:49:01.938Z,97311.21
2018-03-19T02:49:33.572Z,97309.53
2018-03-19T02:50:05.294Z,97305.53
2018-03-19T02:50:36.930Z,97302.63
2018-03-19T02:51:08.555Z,97312.23
2018-03-19T02:51:40.214Z,97306.80
2018-03-19T02:52:11.838Z,97307.22
2018-03-19T02:52:43.462Z,97306.71
2018-03-19T02:53:15.091Z,97309.78
2018-03-19T02:53:46.715Z,97307.25
2018-03-19T02:54:18.338Z,97311.56
2018-03-19T02:54:50.003Z,97308.27
2018-03-19T02:55:21.637Z,97311.42
2018-03-19T02:55:53.266Z,97310.03
2018-03-19T02:56:24.891Z,97313.52
2018-03-19T02:56:56.514Z,97310.97
2018-03-19T02:57:28.178Z,97314.40
2018-03-19T02:57:59.810Z,97309.30
2018-03-19T02:58:31.439Z,97311.78
2018-03-19T02:59:03.065Z,97309.71
2018-03-19T02:59:34.686Z,97309.21
2018-03-19T03:00:06.320Z,97310.92
2018-03-19T03:00:37.947Z,97313.59
2018-03-19T03:01:09.571Z,97310.13
2018-03-19T03:01:41.236Z,97306.79
2018-03-19T03:02:12.863Z,97317.02
2018-03-19T03:02:44.487Z,97311.16
2018-03-19T03:03:16.110Z,97317.55
2018-03-19T03:03:47.739Z,97308.28
2018-03-19T03:04:19.372Z,97311.58
2018-03-19T03:04:51.006Z,97309.42
2018-03-19T03:05:22.631Z,97312.25
2018-03-19T03:05:54.258Z,97314.85
2018-03-19T03:06:25.886Z,97308.56
2018-03-19T03:06:57.558Z,97312.50
2018-03-19T03:07:29.183Z,97312.50
2018-03-19T03:08:00.805Z,97308.27
2018-03-19T03:08:32.434Z,97309.95
2018-03-19T03:09:04.062Z,97310.03
2018-03-19T03:09:35.726Z,97308.70
2018-03-19T03:10:07.350Z,97305.69
2018-03-19T03:10:38.974Z,97305.39
2018-03-19T03:11:10.598Z,97303.66
2018-03-19T03:11:42.264Z,97304.02
2018-03-19T03:12:13.893Z,97305.38
2018-03-19T03:12:45.522Z,97304.45
2018-03-19T03:13:17.146Z,97301.19
2018-03-19T03:13:48.770Z,97304.09
2018-03-19T03:14:20.434Z,97299.83
2018-03-19T03:14:52.070Z,97298.11
2018-03-19T03:15:23.698Z,97305.69
2018-03-19T03:15:55.325Z,97305.89
2018-03-19T03:16:26.950Z,97305.39
2018-03-19T03:16:58.618Z,97304.45
2018-03-19T03:17:30.246Z,97310.83
2018-03-19T03:18:01.875Z,97302.80
2018-03-19T03:18:33.502Z,97311.77
2018-03-19T03:19:05.242Z,97305.34
2018-03-19T03:19:36.870Z,97302.88
2018-03-19T03:20:08.537Z,97305.95
2018-03-19T03:20:40.168Z,97304.35
2018-03-19T03:21:11.795Z,97305.53
2018-03-19T03:21:43.418Z,97301.98
2018-03-19T03:22:15.045Z,97307.27
2018-03-19T03:22:46.671Z,97301.73
2018-03-19T03:23:18.309Z,97303.52
2018-03-19T03:23:49.939Z,97302.67
2018-03-19T03:24:21.566Z,97299.67
2018-03-19T03:24:53.198Z,97306.84
2018-03-19T03:25:24.825Z,97312.80
2018-03-19T03:25:56.499Z,97307.59
2018-03-19T03:26:28.130Z,97309.38
2018-03-19T03:26:59.762Z,97308.12
2018-03-19T03:27:31.386Z,97312.00
2018-03-19T03:28:03.010Z,97310.31
2018-03-19T03:28:34.634Z,97306.55
2018-03-19T03:29:06.263Z,97306.98
2018-03-19T03:29:37.890Z,97303.16
2018-03-19T03:30:09.524Z,97303.25
2018-03-19T03:30:41.150Z,97308.30
2018-03-19T03:31:12.780Z,97307.34
2018-03-19T03:31:44.412Z,97304.47
2018-03-19T03:32:16.043Z,97307.45
2018-03-19T03:32:47.666Z,97305.30
2018-03-19T03:33:19.291Z,97300.30
2018-03-19T03:33:50.918Z,97301.55
2018-03-19T03:34:22.546Z,97302.81
2018-03-19T03:34:54.174Z,97304.53
2018-03-19T03:35:25.849Z,97305.06
2018-03-19T03:35:57.474Z,97299.45
2018-03-19T03:36:29.099Z,97304.95
2018-03-19T03:37:00.726Z,97305.89
2018-03-19T03:37:32.355Z,97297.73
2018-03-19T03:38:03.978Z,97303.25
2018-03-19T03:38:35.611Z,97302.31
2018-03-19T03:39:07.234Z,97300.22
2018-03-19T03:39:38.857Z,97300.73
2018-03-19T03:40:10.486Z,97301.07
2018-03-19T03:40:42.110Z,97301.78
2018-03-19T03:41:13.738Z,97302.19
2018-03-19T03:41:45.362Z,97299.73
2018-03-19T03:42:16.986Z,97301.13
2018-03-19T03:42:48.661Z,97300.34
2018-03-19T03:43:20.283Z,97302.58
2018-03-19T03:43:51.910Z,97301.83
2018-03-19T03:44:23.539Z,97303.87
2018-03-19T03:44:55.166Z,97306.05
2018-03-19T03:45:26.800Z,97301.96
2018-03-19T03:45:58.462Z,97298.97
2018-03-19T03:46:30.092Z,97303.13
2018-03-19T03:47:01.755Z,97297.37
2018-03-19T03:47:33.386Z,97301.77
2018-03-19T03:48:05.058Z,97298.62
2018-03-19T03:48:36.715Z,97286.68
2018-03-19T03:49:08.351Z,97306.41
2018-03-19T03:49:39.950Z,97298.73
2018-03-19T03:50:11.548Z,97276.92
2018-03-19T03:50:43.149Z,97303.58
2018-03-19T03:51:14.746Z,97303.06
2018-03-19T03:51:46.337Z,97301.84
2018-03-19T03:52:17.934Z,97301.71
2018-03-19T03:52:49.534Z,97306.36
2018-03-19T03:53:21.174Z,97302.66
2018-03-19T03:53:52.770Z,97299.39
2018-03-19T03:54:24.372Z,97296.96
2018-03-19T03:54:55.965Z,97303.02
2018-03-19T03:55:27.557Z,97299.28
2018-03-19T03:55:59.149Z,97302.00
2018-03-19T03:56:30.745Z,97310.41
2018-03-19T03:57:02.339Z,97306.59
2018-03-19T03:57:33.934Z,97300.91
2018-03-19T03:58:05.525Z,97304.89
2018-03-19T03:58:37.154Z,97305.23
2018-03-19T03:59:08.750Z,97305.27
2018-03-19T03:59:40.349Z,97310.17
2018-03-19T04:00:11.942Z,97305.58
2018-03-19T04:00:43.538Z,97308.48
2018-03-19T04:01:15.144Z,97307.22
2018-03-19T04:01:46.782Z,97305.53
2018-03-19T04:02:18.377Z,97306.16
2018-03-19T04:02:49.974Z,97304.41
2018-03-19T04:03:21.704Z,97303.59
2018-03-19T04:03:53.218Z,97303.23
2018-03-19T04:04:24.809Z,97300.34
2018-03-19T04:04:56.401Z,97296.41
2018-03-19T04:05:28.044Z,97298.20
2018-03-19T04:05:59.637Z,97302.29
2018-03-19T04:06:31.233Z,97299.40
2018-03-19T04:07:02.826Z,97296.95
2018-03-19T04:07:34.514Z,97302.37
2018-03-19T04:08:06.109Z,97304.51
2018-03-19T04:08:37.702Z,97307.14
2018-03-19T04:09:09.293Z,97304.17
2018-03-19T04:09:40.886Z,97300.42
2018-03-19T04:10:12.482Z,97300.10
2018-03-19T04:10:44.073Z,97299.25
2018-03-19T04:11:15.671Z,97302.70
2018-03-19T04:11:47.265Z,97300.95
2018-03-19T04:12:18.862Z,97298.05
2018-03-19T04:12:50.497Z,97297.50
2018-03-19T04:13:22.093Z,97306.45
2018-03-19T04:13:53.694Z,97293.88
2018-03-19T04:14:25.290Z,97301.20
2018-03-19T04:14:56.889Z,97299.05
2018-03-19T04:15:28.510Z,97300.15
2018-03-19T04:16:00.110Z,97290.17
2018-03-19T04:16:31.758Z,97298.65
2018-03-19T04:17:03.354Z,97295.74
2018-03-19T04:17:34.949Z,97296.27
2018-03-19T04:18:06.545Z,97295.83
2018-03-19T04:18:38.141Z,97297.20
2018-03-19T04:19:09.737Z,97299.34
2018-03-19T04:19:41.333Z,97301.56
2018-03-19T04:20:12.930Z,97296.20
2018-03-19T04:20:44.521Z,97294.85
2018-03-19T04:21:16.117Z,97287.86
2018-03-19T04:21:47.713Z,97294.16
2018-03-19T04:22:19.306Z,97292.63
2018-03-19T04:22:50.897Z,97290.97
2018-03-19T04:23:22.497Z,97290.34
2018-03-19T04:23:54.089Z,97288.23
2018-03-19T04:24:25.693Z,97298.44
2018-03-19T04:24:57.286Z,97291.78
2018-03-19T04:25:28.945Z,97291.47
2018-03-19T04:26:00.542Z,97291.11
2018-03-19T04:26:32.133Z,97292.92
2018-03-19T04:27:03.729Z,97287.07
2018-03-19T04:27:35.329Z,97289.27
2018-03-19T04:28:06.926Z,97294.87
2018-03-19T04:28:38.518Z,97295.31
2018-03-19T04:29:10.113Z,97292.81
2018-03-19T04:29:41.714Z,97288.56
2018-03-19T04:30:13.306Z,97295.06
2018-03-19T04:30:44.938Z,97291.28
2018-03-19T04:31:16.533Z,97296.34
2018-03-19T04:31:48.125Z,97296.34
2018-03-19T04:32:19.717Z,97287.47
2018-03-19T04:32:51.377Z,97290.45
2018-03-19T04:33:22.982Z,97293.84
2018-03-19T04:33:54.582Z,97291.73
2018-03-19T04:34:26.208Z,97294.27
2018-03-19T04:34:57.802Z,97293.48
2018-03-19T04:35:29.410Z,97289.61
2018-03-19T04:36:01.038Z,97292.97
2018-03-19T04:36:32.634Z,97291.28
2018-03-19T04:37:04.233Z,97288.73
2018-03-19T04:37:35.826Z,97286.10
2018-03-19T04:38:07.454Z,97287.45
2018-03-19T04:38:39.050Z,97290.38
2018-03-19T04:39:10.650Z,97291.65
2018-03-19T04:39:42.241Z,97290.86
2018-03-19T04:40:13.837Z,97286.97
2018-03-19T04:40:45.434Z,97285.67
2018-03-19T04:41:17.027Z,97291.91
2018-03-19T04:41:48.622Z,97291.11
2018-03-19T04:42:20.223Z,97288.06
2018-03-19T04:42:51.817Z,97288.05
2018-03-19T04:43:23.453Z,97282.88
2018-03-19T04:43:55.049Z,97283.71
2018-03-19T04:44:26.646Z,97287.54
2018-03-19T04:44:58.250Z,97281.94
2018-03-19T04:45:29.846Z,97283.12
2018-03-19T04:46:01.441Z,97280.08
2018-03-19T04:46:33.034Z,97277.08
2018-03-19T04:47:04.630Z,97281.23
2018-03-19T04:47:36.221Z,97282.03
2018-03-19T04:48:07.858Z,97277.36
2018-03-19T04:48:39.453Z,97280.75
2018-03-19T04:49:11.048Z,97285.45
2018-03-19T04:49:42.666Z,97279.05
2018-03-19T04:50:14.257Z,97279.10
2018-03-19T04:50:45.857Z,97278.29
2018-03-19T04:51:17.482Z,97284.22
2018-03-19T04:51:49.154Z,97284.99
2018-03-19T04:52:20.779Z,97277.26
2018-03-19T04:52:52.403Z,97275.03
2018-03-19T04:53:24.030Z,97276.62
2018-03-19T04:53:55.654Z,97279.92
2018-03-19T04:54:27.318Z,97280.72
2018-03-19T04:54:58.941Z,97281.22
2018-03-19T04:55:30.571Z,97279.87
2018-03-19T04:56:02.230Z,97279.77
2018-03-19T04:56:33.855Z,97279.68
2018-03-19T04:57:05.489Z,97275.87
2018-03-19T04:57:37.119Z,97279.06
2018-03-19T04:58:08.742Z,97282.51
2018-03-19T04:58:40.366Z,97277.35
2018-03-19T04:59:11.990Z,97274.59
2018-03-19T04:59:43.615Z,97276.53
2018-03-19T05:00:15.282Z,97281.53
2018-03-19T05:00:46.915Z,97281.02
2018-03-19T05:01:18.547Z,97280.94
2018-03-19T05:01:50.174Z,97283.57
2018-03-19T05:02:21.803Z,97278.81
2018-03-19T05:02:53.428Z,97285.48
2018-03-19T05:03:25.104Z,97287.48
2018-03-19T05:03:56.718Z,97292.59
2018-03-19T05:04:28.342Z,97288.06
2018-03-19T05:05:00.088Z,97285.19
2018-03-19T05:05:31.815Z,97284.91
2018-03-19T05:06:03.439Z,97283.31
2018-03-19T05:06:35.070Z,97282.99
2018-03-19T05:07:06.700Z,97280.50
2018-03-19T05:07:38.326Z,97282.16
2018-03-19T05:08:09.950Z,97287.41
2018-03-19T05:08:41.574Z,97291.75
2018-03-19T05:09:13.203Z,97298.56
2018-03-19T05:09:44.870Z,97296.89
2018-03-19T05:10:16.498Z,97294.06
2018-03-19T05:10:48.122Z,97296.66
2018-03-19T05:11:19.751Z,97286.16
2018-03-19T05:11:51.383Z,97294.66
2018-03-19T05:12:23.010Z,97292.13
2018-03-19T05:12:54.638Z,97294.84
2018-03-19T05:13:26.261Z,97290.24
2018-03-19T05:13:57.885Z,97288.97
2018-03-19T05:14:29.506Z,97292.75
2018-03-19T05:15:01.179Z,97293.66
2018-03-19T05:15:32.810Z,97299.22
2018-03-19T05:16:04.442Z,97296.72
2018-03-19T05:16:36.069Z,97295.13
2018-03-19T05:17:07.699Z,97292.25
2018-03-19T05:17:39.353Z,97301.16
2018-03-19T05:18:10.987Z,97297.33
2018-03-19T05:18:42.609Z,97291.38
2018-03-19T05:19:14.237Z,97299.88
2018-03-19T05:19:45.862Z,97296.98
2018-03-19T05:20:17.525Z,97294.09
2018-03-19T05:20:49.155Z,97307.28
2018-03-19T05:21:20.782Z,97300.42
2018-03-19T05:21:52.412Z,97300.82
2018-03-19T05:22:24.053Z,97305.01
2018-03-19T05:22:55.682Z,97300.77
2018-03-19T05:23:27.326Z,97300.25
2018-03-19T05:23:58.951Z,97296.94
2018-03-19T05:24:30.623Z,97305.00
2018-03-19T05:25:02.255Z,97306.23
2018-03-19T05:25:33.882Z,97307.97
2018-03-19T05:26:05.533Z,97308.37
2018-03-19T05:26:37.157Z,97307.09
2018-03-19T05:27:08.822Z,97310.44
2018-03-19T05:27:40.446Z,97306.92
2018-03-19T05:28:12.074Z,97307.38
2018-03-19T05:28:43.702Z,97307.81
2018-03-19T05:29:15.333Z,97311.97
2018-03-19T05:29:46.966Z,97307.30
2018-03-19T05:30:18.610Z,97311.13
2018-03-19T05:30:50.238Z,97310.34
2018-03-19T05:31:21.877Z,97314.19
2018-03-19T05:31:53.542Z,97311.97
2018-03-19T05:32:25.214Z,97315.79
2018-03-19T05:32:56.842Z,97314.94
2018-03-19T05:33:28.474Z,97321.30
2018-03-19T05:34:00.098Z,97323.80
2018-03-19T05:34:31.722Z,97316.54
2018-03-19T05:35:03.351Z,97322.14
2018-03-19T05:35:34.983Z,97319.54
2018-03-19T05:36:06.613Z,97325.13
2018-03-19T05:36:38.248Z,97320.44
2018-03-19T05:37:09.886Z,97326.34
2018-03-19T05:37:41.510Z,97324.15
2018-03-19T05:38:13.135Z,97323.05
2018-03-19T05:38:44.762Z,97328.19
2018-03-19T05:39:16.398Z,97322.33
2018-03-19T05:39:48.026Z,97320.98
2018-03-19T05:40:19.654Z,97326.59
2018-03-19T05:40:51.334Z,97328.44
2018-03-19T05:41:22.962Z,97324.98
2018-03-19T05:41:54.670Z,97325.77
2018-03-19T05:42:26.306Z,97326.52
2018-03-19T05:42:57.935Z,97325.66
2018-03-19T05:43:29.558Z,97328.66
2018-03-19T05:44:01.182Z,97328.20
2018-03-19T05:44:32.827Z,97323.62
2018-03-19T05:45:04.459Z,97326.95
2018-03-19T05:45:36.090Z,97329.56
2018-03-19T05:46:07.758Z,97321.47
2018-03-19T05:46:39.426Z,97326.44
2018-03-19T05:47:11.054Z,97332.89
2018-03-19T05:47:42.722Z,97329.59
2018-03-19T05:48:14.350Z,97329.98
2018-03-19T05:48:45.974Z,97330.00
2018-03-19T05:49:17.598Z,97326.61
2018-03-19T05:49:49.226Z,97324.45
2018-03-19T05:50:20.853Z,97321.47
2018-03-19T05:50:52.482Z,97328.20
2018-03-19T05:51:24.111Z,97318.92
2018-03-19T05:51:55.782Z,97327.45
2018-03-19T05:52:27.405Z,97321.92
2018-03-19T05:52:59.030Z,97324.38
2018-03-19T05:53:30.659Z,97323.17
2018-03-19T05:54:02.330Z,97320.97
2018-03-19T05:54:33.958Z,97325.25
2018-03-19T05:55:05.585Z,97318.06
2018-03-19T05:55:37.211Z,97322.19
2018-03-19T05:56:08.833Z,97319.70
2018-03-19T05:56:40.496Z,97324.30
2018-03-19T05:57:12.126Z,97316.66
2018-03-19T05:57:43.750Z,97324.27
2018-03-19T05:58:15.379Z,97318.67
2018-03-19T05:58:47.006Z,97324.55
2018-03-19T05:59:18.630Z,97329.31
2018-03-19T05:59:50.258Z,97318.34
2018-03-19T06:00:21.889Z,97323.87
2018-03-19T06:00:53.579Z,97320.87
2018-03-19T06:01:25.201Z,97318.31
2018-03-19T06:01:56.835Z,97326.36
2018-03-19T06:02:28.458Z,97323.86
2018-03-19T06:03:00.086Z,97317.41
2018-03-19T06:03:31.709Z,97324.13
2018-03-19T06:04:03.377Z,97328.78
2018-03-19T06:04:35.008Z,97323.28
2018-03-19T06:05:06.639Z,97325.05
2018-03-19T06:05:38.262Z,97324.15
2018-03-19T06:06:09.895Z,97326.70
2018-03-19T06:06:41.587Z,97325.83
2018-03-19T06:07:13.210Z,97322.75
2018-03-19T06:07:44.834Z,97324.95
2018-03-19T06:08:16.461Z,97326.25
2018-03-19T06:08:48.082Z,97332.55
2018-03-19T06:09:19.710Z,97328.64
2018-03-19T06:09:51.334Z,97329.47
2018-03-19T06:10:22.964Z,97323.54
2018-03-19T06:10:54.598Z,97331.60
2018-03-19T06:11:26.222Z,97332.87